首页
METAR-TAF:

METAR-TAF

机场 :

尤金, 俄勒冈州, 美国

纬度: 44-08-00N, 经度: 123-12-52W, 海拔: 111米

当前天气观测

该预报发布于58分钟前的22:54 UTC
静风
温度 8°C
湿度 76%
气压 1022 hPa
能見度: 16.1公里
阴天层高于1200英尺

METAR: KEUG 092254Z 00000KT 10SM OVC012 08/04 A3018 RMK AO2 SLP221 T00830044

时间: 15:52 (23:52 UTC)

预报

该预报发布于31分钟前的23:21 UTC
预报有效从10日的 00点(UTC)到 10日的 24点(UTC)
风速节,风向
能見度: 10公里
阴天层高于1200英尺
从 10日的 0200点(UTC)
风速节,风向
能見度: 10公里
阴天层高于5000英尺
从 10日的 0300点(UTC)
风速节,风向
能見度: 6.4公里
阴天层高于300英尺
轻雾
从 10日的 0900点(UTC)
风速3节,风向
能見度: 3.2公里
阴天层高于300英尺
轻雾
从 10日的 1500点(UTC)
风速3节,风向
能見度: 0.8公里
阴天层高于5000英尺
从 10日的 1900点(UTC)
风速4节,风向
能見度: 6.4公里
阴天层高于700英尺
小雨

TAF: KEUG 092321Z 1000/1024 00000KT P6SM OVC012 FM100200 00000KT P6SM OVC050 FM100300 00000KT 4SM BR OVC003 FM100900 17003KT 2SM BR OVC003 FM101500 18003KT 1/2SM FG OVC050 FM101900 18004KT 4SM -RA OVC007

超过4000个机场的气象观测和天气预报(METAR&TAF报告)。

可查询的气象台以黄色和红色小点在地图上表示。

将鼠标移到小点上方,可查看气象台名称。

然后点击查看天气观测和预报。

如需切换地图:点击带黑十字的绿色按钮放大地图;点击带横线的绿色按钮缩小地图;或者点击绿色箭头查看邻近地区的地图。


METAR-TAF: